sensor_id;sensor_type;location;lat;lon;timestamp;pressure;altitude;pressure_sealevel;temperature;humidity
44988;BME280;35735;52.226;21.254;2022-10-30T00:02:38;100703.34;;;12.45;100.00
44988;BME280;35735;52.226;21.254;2022-10-30T00:07:39;100701.53;;;12.41;100.00
44988;BME280;35735;52.226;21.254;2022-10-30T00:12:39;100708.78;;;12.37;100.00
44988;BME280;35735;52.226;21.254;2022-10-30T00:17:40;100691.63;;;12.41;100.00
44988;BME280;35735;52.226;21.254;2022-10-30T00:22:41;100693.47;;;12.36;100.00
44988;BME280;35735;52.226;21.254;2022-10-30T00:27:41;100688.00;;;12.42;100.00
44988;BME280;35735;52.226;21.254;2022-10-30T00:32:42;100686.22;;;12.41;100.00
44988;BME280;35735;52.226;21.254;2022-10-30T00:37:42;100676.28;;;12.37;100.00
44988;BME280;35735;52.226;21.254;2022-10-30T00:42:43;100673.59;;;12.36;100.00
44988;BME280;35735;52.226;21.254;2022-10-30T00:47:46;100678.06;;;12.46;100.00
44988;BME280;35735;52.226;21.254;2022-10-30T00:52:53;100690.69;;;12.50;100.00
44988;BME280;35735;52.226;21.254;2022-10-30T00:58:00;100673.50;;;12.56;100.00
44988;BME280;35735;52.226;21.254;2022-10-30T01:03:03;100666.25;;;12.61;100.00
44988;BME280;35735;52.226;21.254;2022-10-30T01:08:04;100657.25;;;12.64;100.00
44988;BME280;35735;52.226;21.254;2022-10-30T01:13:05;100647.28;;;12.64;100.00
44988;BME280;35735;52.226;21.254;2022-10-30T01:18:12;100654.50;;;12.71;100.00
44988;BME280;35735;52.226;21.254;2022-10-30T01:23:28;100675.22;;;12.75;100.00
44988;BME280;35735;52.226;21.254;2022-10-30T01:34:50;100705.03;;;12.77;100.00
44988;BME280;35735;52.226;21.254;2022-10-30T01:39:55;100698.72;;;12.76;100.00
44988;BME280;35735;52.226;21.254;2022-10-30T01:44:56;100684.31;;;12.71;100.00
44988;BME280;35735;52.226;21.254;2022-10-30T01:50:16;100675.22;;;12.77;100.00
44988;BME280;35735;52.226;21.254;2022-10-30T01:55:47;100678.81;;;12.81;100.00
44988;BME280;35735;52.226;21.254;2022-10-30T02:01:04;100669.78;;;12.82;100.00
44988;BME280;35735;52.226;21.254;2022-10-30T02:06:05;100668.00;;;12.74;100.00
44988;BME280;35735;52.226;21.254;2022-10-30T02:11:05;100671.66;;;12.73;100.00
44988;BME280;35735;52.226;21.254;2022-10-30T02:16:06;100676.19;;;12.70;100.00
44988;BME280;35735;52.226;21.254;2022-10-30T02:21:07;100693.31;;;12.72;100.00
44988;BME280;35735;52.226;21.254;2022-10-30T02:26:08;100688.78;;;12.74;100.00
44988;BME280;35735;52.226;21.254;2022-10-30T02:31:08;100693.31;;;12.67;100.00
44988;BME280;35735;52.226;21.254;2022-10-30T02:36:09;100689.75;;;12.62;100.00
44988;BME280;35735;52.226;21.254;2022-10-30T02:41:10;100696.97;;;12.60;100.00
44988;BME280;35735;52.226;21.254;2022-10-30T02:46:11;100695.16;;;12.57;100.00
44988;BME280;35735;52.226;21.254;2022-10-30T02:51:11;100687.09;;;12.50;100.00
44988;BME280;35735;52.226;21.254;2022-10-30T02:56:13;100679.88;;;12.42;100.00
44988;BME280;35735;52.226;21.254;2022-10-30T03:01:16;100695.22;;;12.45;100.00
44988;BME280;35735;52.226;21.254;2022-10-30T03:06:17;100694.34;;;12.45;100.00
44988;BME280;35735;52.226;21.254;2022-10-30T03:11:19;100693.41;;;12.52;100.00
44988;BME280;35735;52.226;21.254;2022-10-30T03:16:22;100700.66;;;12.40;100.00
44988;BME280;35735;52.226;21.254;2022-10-30T03:21:25;100708.75;;;12.42;100.00
44988;BME280;35735;52.226;21.254;2022-10-30T03:26:26;100718.69;;;12.43;100.00
44988;BME280;35735;52.226;21.254;2022-10-30T03:31:29;100706.09;;;12.31;100.00
44988;BME280;35735;52.226;21.254;2022-10-30T03:36:30;100704.34;;;12.18;100.00
44988;BME280;35735;52.226;21.254;2022-10-30T03:41:30;100693.50;;;12.15;100.00
44988;BME280;35735;52.226;21.254;2022-10-30T03:46:31;100690.81;;;12.12;100.00
44988;BME280;35735;52.226;21.254;2022-10-30T03:51:31;100706.12;;;12.13;100.00
44988;BME280;35735;52.226;21.254;2022-10-30T03:56:32;100713.34;;;12.14;100.00
44988;BME280;35735;52.226;21.254;2022-10-30T04:01:33;100711.53;;;12.19;100.00
44988;BME280;35735;52.226;21.254;2022-10-30T04:06:33;100700.69;;;12.19;100.00
44988;BME280;35735;52.226;21.254;2022-10-30T04:11:34;100704.28;;;12.27;100.00
44988;BME280;35735;52.226;21.254;2022-10-30T04:16:34;100705.16;;;12.37;100.00
44988;BME280;35735;52.226;21.254;2022-10-30T04:21:35;100700.63;;;12.44;100.00
44988;BME280;35735;52.226;21.254;2022-10-30T04:26:35;100691.59;;;12.48;100.00
44988;BME280;35735;52.226;21.254;2022-10-30T04:31:36;100685.28;;;12.52;100.00
44988;BME280;35735;52.226;21.254;2022-10-30T04:36:36;100686.16;;;12.51;100.00
44988;BME280;35735;52.226;21.254;2022-10-30T04:41:37;100684.37;;;12.50;100.00
44988;BME280;35735;52.226;21.254;2022-10-30T04:46:37;100684.37;;;12.50;100.00
44988;BME280;35735;52.226;21.254;2022-10-30T04:51:38;100684.41;;;12.44;100.00
44988;BME280;35735;52.226;21.254;2022-10-30T04:56:39;100675.34;;;12.48;100.00
44988;BME280;35735;52.226;21.254;2022-10-30T05:01:39;100677.16;;;12.46;100.00
44988;BME280;35735;52.226;21.254;2022-10-30T05:06:40;100669.91;;;12.51;100.00
44988;BME280;35735;52.226;21.254;2022-10-30T05:11:40;100675.31;;;12.57;100.00
44988;BME280;35735;52.226;21.254;2022-10-30T05:16:41;100687.94;;;12.61;100.00
44988;BME280;35735;52.226;21.254;2022-10-30T05:21:41;100696.97;;;12.62;100.00
44988;BME280;35735;52.226;21.254;2022-10-30T05:26:42;100701.47;;;12.66;100.00
44988;BME280;35735;52.226;21.254;2022-10-30T05:31:42;100711.41;;;12.65;100.00
44988;BME280;35735;52.226;21.254;2022-10-30T05:36:43;100712.28;;;12.64;100.00
44988;BME280;35735;52.226;21.254;2022-10-30T05:41:43;100710.50;;;12.65;100.00
44988;BME280;35735;52.226;21.254;2022-10-30T05:46:44;100699.69;;;12.52;100.00
44988;BME280;35735;52.226;21.254;2022-10-30T05:51:44;100702.41;;;12.49;100.00
44988;BME280;35735;52.226;21.254;2022-10-30T05:56:45;100696.16;;;12.38;100.00
44988;BME280;35735;52.226;21.254;2022-10-30T06:01:45;100700.66;;;12.34;100.00
44988;BME280;35735;52.226;21.254;2022-10-30T06:06:46;100706.06;;;12.39;100.00
44988;BME280;35735;52.226;21.254;2022-10-30T06:11:47;100716.00;;;12.35;100.00
44988;BME280;35735;52.226;21.254;2022-10-30T06:16:48;100710.59;;;12.40;100.00
44988;BME280;35735;52.226;21.254;2022-10-30T06:21:48;100717.78;;;12.42;100.00
44988;BME280;35735;52.226;21.254;2022-10-30T06:26:49;100715.94;;;12.52;100.00
44988;BME280;35735;52.226;21.254;2022-10-30T06:31:49;100721.34;;;12.65;100.00
44988;BME280;35735;52.226;21.254;2022-10-30T06:36:50;100725.75;;;12.79;100.00
44988;BME280;35735;52.226;21.254;2022-10-30T06:41:51;100716.75;;;12.81;100.00
44988;BME280;35735;52.226;21.254;2022-10-30T06:46:52;100714.91;;;12.89;100.00
44988;BME280;35735;52.226;21.254;2022-10-30T06:51:53;100725.72;;;12.96;100.00
44988;BME280;35735;52.226;21.254;2022-10-30T06:56:53;100731.06;;;13.10;100.00
44988;BME280;35735;52.226;21.254;2022-10-30T07:01:54;100737.31;;;13.20;100.00
44988;BME280;35735;52.226;21.254;2022-10-30T07:06:54;100739.09;;;13.26;100.00
44988;BME280;35735;52.226;21.254;2022-10-30T07:11:55;100739.09;;;13.35;100.00
44988;BME280;35735;52.226;21.254;2022-10-30T07:16:56;100749.84;;;13.44;100.00
44988;BME280;35735;52.226;21.254;2022-10-30T07:21:56;100728.13;;;13.47;100.00
44988;BME280;35735;52.226;21.254;2022-10-30T07:26:57;100728.94;;;13.65;100.00
44988;BME280;35735;52.226;21.254;2022-10-30T07:31:57;100749.69;;;13.66;100.00
44988;BME280;35735;52.226;21.254;2022-10-30T07:36:58;100750.62;;;13.65;100.00
44988;BME280;35735;52.226;21.254;2022-10-30T07:41:58;100764.12;;;13.71;100.00
44988;BME280;35735;52.226;21.254;2022-10-30T07:46:59;100750.53;;;13.77;100.00
44988;BME280;35735;52.226;21.254;2022-10-30T07:51:59;100744.97;;;13.91;100.00
44988;BME280;35735;52.226;21.254;2022-10-30T07:57:00;100733.13;;;14.00;100.00
44988;BME280;35735;52.226;21.254;2022-10-30T08:02:01;100734.88;;;14.10;100.00
44988;BME280;35735;52.226;21.254;2022-10-30T08:07:01;100733.88;;;14.17;100.00
44988;BME280;35735;52.226;21.254;2022-10-30T08:12:02;100732.91;;;14.23;100.00
44988;BME280;35735;52.226;21.254;2022-10-30T08:17:02;100745.53;;;14.32;100.00
44988;BME280;35735;52.226;21.254;2022-10-30T08:22:03;100732.69;;;14.46;100.00
44988;BME280;35735;52.226;21.254;2022-10-30T08:27:04;100737.97;;;14.61;100.00
44988;BME280;35735;52.226;21.254;2022-10-30T08:32:04;100744.16;;;14.73;100.00
44988;BME280;35735;52.226;21.254;2022-10-30T08:37:05;100745.94;;;14.77;100.00
44988;BME280;35735;52.226;21.254;2022-10-30T08:42:06;100732.37;;;14.75;100.00
44988;BME280;35735;52.226;21.254;2022-10-30T08:47:06;100737.78;;;14.78;100.00
44988;BME280;35735;52.226;21.254;2022-10-30T08:52:07;100733.25;;;14.79;100.00
44988;BME280;35735;52.226;21.254;2022-10-30T08:57:08;100731.31;;;14.87;100.00
44988;BME280;35735;52.226;21.254;2022-10-30T09:02:09;100737.59;;;14.92;100.00
44988;BME280;35735;52.226;21.254;2022-10-30T09:07:09;100732.97;;;15.00;100.00
44988;BME280;35735;52.226;21.254;2022-10-30T09:12:10;100731.97;;;15.06;100.00
44988;BME280;35735;52.226;21.254;2022-10-30T09:17:10;100723.84;;;15.05;100.00
44988;BME280;35735;52.226;21.254;2022-10-30T09:22:11;100735.41;;;15.22;100.00
44988;BME280;35735;52.226;21.254;2022-10-30T09:27:11;100737.94;;;15.34;100.00
44988;BME280;35735;52.226;21.254;2022-10-30T09:32:12;100746.81;;;15.47;100.00
44988;BME280;35735;52.226;21.254;2022-10-30T09:37:12;100735.75;;;15.58;100.00
44988;BME280;35735;52.226;21.254;2022-10-30T09:48:14;100754.78;;;15.60;100.00
44988;BME280;35735;52.226;21.254;2022-10-30T10:04:04;100754.12;;;16.01;100.00
44988;BME280;35735;52.226;21.254;2022-10-30T10:09:25;100755.72;;;16.15;100.00
44988;BME280;35735;52.226;21.254;2022-10-30T10:14:31;100760.31;;;16.12;100.00
44988;BME280;35735;52.226;21.254;2022-10-30T10:19:39;100734.75;;;16.20;100.00
44988;BME280;35735;52.226;21.254;2022-10-30T10:24:43;100736.38;;;16.30;100.00
44988;BME280;35735;52.226;21.254;2022-10-30T10:29:59;100736.22;;;16.39;100.00
44988;BME280;35735;52.226;21.254;2022-10-30T10:51:20;100743.25;;;16.51;100.00
44988;BME280;35735;52.226;21.254;2022-10-30T10:56:27;100746.03;;;16.48;100.00
44988;BME280;35735;52.226;21.254;2022-10-30T11:01:35;100734.25;;;16.47;100.00
44988;BME280;35735;52.226;21.254;2022-10-30T11:06:39;100723.34;;;16.47;100.00
44988;BME280;35735;52.226;21.254;2022-10-30T11:11:42;100731.41;;;16.52;100.00
44988;BME280;35735;52.226;21.254;2022-10-30T11:22:39;100734.88;;;16.60;99.40
44988;BME280;35735;52.226;21.254;2022-10-30T11:27:44;100730.19;;;16.67;99.79
44988;BME280;35735;52.226;21.254;2022-10-30T11:32:47;100721.16;;;16.65;96.37
44988;BME280;35735;52.226;21.254;2022-10-30T11:37:49;100721.22;;;16.62;95.22
44988;BME280;35735;52.226;21.254;2022-10-30T11:42:58;100717.59;;;16.61;95.20
44988;BME280;35735;52.226;21.254;2022-10-30T11:48:08;100723.88;;;16.65;94.44
44988;BME280;35735;52.226;21.254;2022-10-30T11:53:22;100724.75;;;16.67;94.95
44988;BME280;35735;52.226;21.254;2022-10-30T11:58:29;100721.87;;;16.75;94.53
44988;BME280;35735;52.226;21.254;2022-10-30T12:03:37;100722.75;;;16.75;93.23
44988;BME280;35735;52.226;21.254;2022-10-30T12:08:39;100719.22;;;16.72;93.08
44988;BME280;35735;52.226;21.254;2022-10-30T12:13:40;100717.47;;;16.69;92.91
44988;BME280;35735;52.226;21.254;2022-10-30T12:18:53;100693.03;;;16.64;92.55
44988;BME280;35735;52.226;21.254;2022-10-30T12:24:00;100695.78;;;16.63;91.67
44988;BME280;35735;52.226;21.254;2022-10-30T12:29:05;100700.47;;;16.56;88.96
44988;BME280;35735;52.226;21.254;2022-10-30T12:34:28;100700.56;;;16.50;89.76
44988;BME280;35735;52.226;21.254;2022-10-30T12:40:09;100690.78;;;16.40;89.55
44988;BME280;35735;52.226;21.254;2022-10-30T12:45:25;100685.47;;;16.32;89.99
44988;BME280;35735;52.226;21.254;2022-10-30T12:51:00;100689.31;;;16.22;90.00
44988;BME280;35735;52.226;21.254;2022-10-30T12:56:16;100687.59;;;16.18;90.48
44988;BME280;35735;52.226;21.254;2022-10-30T13:01:24;100688.53;;;16.15;91.01
44988;BME280;35735;52.226;21.254;2022-10-30T13:06:32;100683.28;;;16.06;91.54
44988;BME280;35735;52.226;21.254;2022-10-30T13:11:49;100675.19;;;16.01;91.68
44988;BME280;35735;52.226;21.254;2022-10-30T13:16:52;100667.22;;;15.90;92.14
44988;BME280;35735;52.226;21.254;2022-10-30T13:22:18;100665.38;;;15.91;93.46
44988;BME280;35735;52.226;21.254;2022-10-30T13:27:30;100657.19;;;15.94;94.15
44988;BME280;35735;52.226;21.254;2022-10-30T13:43:58;100671.69;;;15.93;93.75
44988;BME280;35735;52.226;21.254;2022-10-30T13:54:41;100667.41;;;15.80;94.40
44988;BME280;35735;52.226;21.254;2022-10-30T14:05:30;100661.09;;;15.74;94.79
44988;BME280;35735;52.226;21.254;2022-10-30T14:10:44;100663.00;;;15.71;94.70
44988;BME280;35735;52.226;21.254;2022-10-30T14:15:46;100654.09;;;15.61;94.68
44988;BME280;35735;52.226;21.254;2022-10-30T14:20:51;100657.78;;;15.57;95.02
44988;BME280;35735;52.226;21.254;2022-10-30T14:36:15;100658.81;;;15.48;95.24
44988;BME280;35735;52.226;21.254;2022-10-30T14:41:24;100647.97;;;15.47;95.65
44988;BME280;35735;52.226;21.254;2022-10-30T14:46:43;100654.34;;;15.46;95.71
44988;BME280;35735;52.226;21.254;2022-10-30T14:52:06;100649.97;;;15.37;95.75
44988;BME280;35735;52.226;21.254;2022-10-30T14:57:20;100651.81;;;15.33;95.83
44988;BME280;35735;52.226;21.254;2022-10-30T15:02:51;100650.16;;;15.23;96.32
44988;BME280;35735;52.226;21.254;2022-10-30T15:08:06;100656.63;;;15.16;96.78
44988;BME280;35735;52.226;21.254;2022-10-30T15:13:19;100648.53;;;15.10;97.10
44988;BME280;35735;52.226;21.254;2022-10-30T15:18:20;100652.38;;;14.96;97.20
44988;BME280;35735;52.226;21.254;2022-10-30T15:23:26;100651.75;;;14.77;97.60
44988;BME280;35735;52.226;21.254;2022-10-30T15:28:30;100647.37;;;14.66;98.39
44988;BME280;35735;52.226;21.254;2022-10-30T15:33:36;100661.13;;;14.50;98.81
44988;BME280;35735;52.226;21.254;2022-10-30T15:38:36;100663.03;;;14.42;99.50
44988;BME280;35735;52.226;21.254;2022-10-30T15:43:39;100659.47;;;14.37;99.69
44988;BME280;35735;52.226;21.254;2022-10-30T15:48:44;100670.44;;;14.27;100.00
44988;BME280;35735;52.226;21.254;2022-10-30T15:53:55;100658.75;;;14.18;100.00
44988;BME280;35735;52.226;21.254;2022-10-30T15:59:00;100657.94;;;14.11;100.00
44988;BME280;35735;52.226;21.254;2022-10-30T16:04:02;100658.03;;;14.05;100.00
44988;BME280;35735;52.226;21.254;2022-10-30T16:09:03;100670.78;;;13.97;100.00
44988;BME280;35735;52.226;21.254;2022-10-30T16:14:13;100655.47;;;13.86;100.00
44988;BME280;35735;52.226;21.254;2022-10-30T16:19:19;100660.00;;;13.84;100.00
44988;BME280;35735;52.226;21.254;2022-10-30T16:24:30;100659.16;;;13.79;100.00
44988;BME280;35735;52.226;21.254;2022-10-30T16:29:32;100662.84;;;13.72;100.00
44988;BME280;35735;52.226;21.254;2022-10-30T16:34:34;100678.25;;;13.68;100.00
44988;BME280;35735;52.226;21.254;2022-10-30T16:39:37;100680.19;;;13.52;100.00
44988;BME280;35735;52.226;21.254;2022-10-30T16:44:38;100656.78;;;13.42;100.00
44988;BME280;35735;52.226;21.254;2022-10-30T16:49:43;100650.50;;;13.31;100.00
44988;BME280;35735;52.226;21.254;2022-10-30T16:54:48;100691.19;;;13.26;100.00
44988;BME280;35735;52.226;21.254;2022-10-30T16:59:54;100698.41;;;13.29;100.00
44988;BME280;35735;52.226;21.254;2022-10-30T17:05:03;100700.22;;;13.33;100.00
44988;BME280;35735;52.226;21.254;2022-10-30T17:15:46;100692.22;;;13.07;100.00
44988;BME280;35735;52.226;21.254;2022-10-30T17:21:05;100697.66;;;13.04;100.00
44988;BME280;35735;52.226;21.254;2022-10-30T17:26:10;100689.62;;;12.91;100.00
44988;BME280;35735;52.226;21.254;2022-10-30T17:36:17;100697.75;;;12.85;100.00
44988;BME280;35735;52.226;21.254;2022-10-30T17:41:17;100703.19;;;12.84;100.00
44988;BME280;35735;52.226;21.254;2022-10-30T17:46:18;100687.91;;;12.64;100.00
44988;BME280;35735;52.226;21.254;2022-10-30T17:51:18;100684.34;;;12.57;100.00
44988;BME280;35735;52.226;21.254;2022-10-30T17:56:29;100686.16;;;12.51;100.00
44988;BME280;35735;52.226;21.254;2022-10-30T18:01:30;100691.63;;;12.45;100.00
44988;BME280;35735;52.226;21.254;2022-10-30T18:06:31;100678.09;;;12.37;100.00
44988;BME280;35735;52.226;21.254;2022-10-30T18:11:31;100688.06;;;12.29;100.00
44988;BME280;35735;52.226;21.254;2022-10-30T18:16:32;100677.28;;;12.18;100.00
44988;BME280;35735;52.226;21.254;2022-10-30T18:21:33;100683.56;;;12.18;100.00
44988;BME280;35735;52.226;21.254;2022-10-30T18:26:33;100688.09;;;12.18;100.00
44988;BME280;35735;52.226;21.254;2022-10-30T18:31:34;100687.22;;;12.11;100.00
44988;BME280;35735;52.226;21.254;2022-10-30T18:36:35;100681.78;;;12.08;100.00
44988;BME280;35735;52.226;21.254;2022-10-30T18:41:37;100684.50;;;12.10;100.00
44988;BME280;35735;52.226;21.254;2022-10-30T18:46:40;100679.97;;;11.99;100.00
44988;BME280;35735;52.226;21.254;2022-10-30T18:51:41;100675.50;;;11.95;100.00
44988;BME280;35735;52.226;21.254;2022-10-30T18:56:42;100685.41;;;12.02;100.00
44988;BME280;35735;52.226;21.254;2022-10-30T19:01:42;100679.97;;;12.02;100.00
44988;BME280;35735;52.226;21.254;2022-10-30T19:06:43;100679.09;;;11.94;100.00
44988;BME280;35735;52.226;21.254;2022-10-30T19:11:43;100684.50;;;11.88;100.00
44988;BME280;35735;52.226;21.254;2022-10-30T19:16:44;100677.31;;;11.78;100.00
44988;BME280;35735;52.226;21.254;2022-10-30T19:21:45;100681.81;;;11.65;100.00
44988;BME280;35735;52.226;21.254;2022-10-30T19:26:45;100681.81;;;11.68;100.00
44988;BME280;35735;52.226;21.254;2022-10-30T19:31:46;100689.91;;;11.73;100.00
44988;BME280;35735;52.226;21.254;2022-10-30T19:36:46;100681.78;;;11.73;100.00
44988;BME280;35735;52.226;21.254;2022-10-30T19:41:47;100685.41;;;11.72;100.00
44988;BME280;35735;52.226;21.254;2022-10-30T19:46:47;100687.19;;;11.76;100.00
44988;BME280;35735;52.226;21.254;2022-10-30T19:51:48;100689.91;;;11.76;100.00
44988;BME280;35735;52.226;21.254;2022-10-30T19:56:48;100684.50;;;11.76;100.00
44988;BME280;35735;52.226;21.254;2022-10-30T20:01:49;100698.94;;;11.72;100.00
44988;BME280;35735;52.226;21.254;2022-10-30T20:06:49;100691.72;;;11.60;100.00
44988;BME280;35735;52.226;21.254;2022-10-30T20:11:50;100701.63;;;11.48;100.00
44988;BME280;35735;52.226;21.254;2022-10-30T20:16:50;100716.06;;;11.44;100.00
44988;BME280;35735;52.226;21.254;2022-10-30T20:21:51;100710.63;;;11.40;100.00
44988;BME280;35735;52.226;21.254;2022-10-30T20:26:53;100721.44;;;11.35;100.00
44988;BME280;35735;52.226;21.254;2022-10-30T20:31:54;100716.94;;;11.45;100.00
44988;BME280;35735;52.226;21.254;2022-10-30T20:36:55;100720.53;;;11.47;100.00
44988;BME280;35735;52.226;21.254;2022-10-30T20:41:55;100722.34;;;11.42;100.00
44988;BME280;35735;52.226;21.254;2022-10-30T20:46:56;100718.72;;;11.30;100.00
44988;BME280;35735;52.226;21.254;2022-10-30T20:51:56;100716.88;;;11.14;100.00
44988;BME280;35735;52.226;21.254;2022-10-30T20:56:57;100715.03;;;11.02;100.00
44988;BME280;35735;52.226;21.254;2022-10-30T21:01:58;100715.94;;;10.93;100.00
44988;BME280;35735;52.226;21.254;2022-10-30T21:06:58;100719.50;;;10.85;100.00
44988;BME280;35735;52.226;21.254;2022-10-30T21:11:59;100712.28;;;10.76;100.00
44988;BME280;35735;52.226;21.254;2022-10-30T21:16:59;100702.34;;;10.70;100.00
44988;BME280;35735;52.226;21.254;2022-10-30T21:22:00;100705.97;;;10.71;100.00
44988;BME280;35735;52.226;21.254;2022-10-30T21:27:00;100711.31;;;10.63;100.00
44988;BME280;35735;52.226;21.254;2022-10-30T21:32:01;100711.28;;;10.52;100.00
44988;BME280;35735;52.226;21.254;2022-10-30T21:37:01;100710.31;;;10.41;100.00
44988;BME280;35735;52.226;21.254;2022-10-30T21:42:02;100706.69;;;10.36;100.00
44988;BME280;35735;52.226;21.254;2022-10-30T21:47:03;100711.09;;;10.25;100.00
44988;BME280;35735;52.226;21.254;2022-10-30T21:52:04;100712.84;;;10.16;100.00
44988;BME280;35735;52.226;21.254;2022-10-30T21:57:05;100708.25;;;10.05;100.00
44988;BME280;35735;52.226;21.254;2022-10-30T22:02:06;100704.56;;;9.92;100.00
44988;BME280;35735;52.226;21.254;2022-10-30T22:07:06;100694.69;;;9.91;100.00
44988;BME280;35735;52.226;21.254;2022-10-30T22:12:07;100697.38;;;9.94;100.00
44988;BME280;35735;52.226;21.254;2022-10-30T22:17:07;100697.34;;;9.86;100.00
44988;BME280;35735;52.226;21.254;2022-10-30T22:22:08;100698.22;;;9.85;100.00
44988;BME280;35735;52.226;21.254;2022-10-30T22:27:08;100698.16;;;9.74;100.00
44988;BME280;35735;52.226;21.254;2022-10-30T22:32:09;100699.00;;;9.66;100.00
44988;BME280;35735;52.226;21.254;2022-10-30T22:37:10;100703.47;;;9.65;100.00
44988;BME280;35735;52.226;21.254;2022-10-30T22:42:10;100695.31;;;9.54;100.00
44988;BME280;35735;52.226;21.254;2022-10-30T22:47:11;100692.53;;;9.46;100.00
44988;BME280;35735;52.226;21.254;2022-10-30T22:52:11;100691.59;;;9.41;100.00
44988;BME280;35735;52.226;21.254;2022-10-30T22:57:12;100689.75;;;9.36;100.00
44988;BME280;35735;52.226;21.254;2022-10-30T23:02:12;100693.34;;;9.38;100.00
44988;BME280;35735;52.226;21.254;2022-10-30T23:07:13;100688.84;;;9.32;100.00
44988;BME280;35735;52.226;21.254;2022-10-30T23:12:13;100704.91;;;9.24;100.00
44988;BME280;35735;52.226;21.254;2022-10-30T23:17:14;100701.31;;;9.24;100.00
44988;BME280;35735;52.226;21.254;2022-10-30T23:22:14;100704.84;;;9.18;100.00
44988;BME280;35735;52.226;21.254;2022-10-30T23:27:15;100704.84;;;9.20;100.00
44988;BME280;35735;52.226;21.254;2022-10-30T23:32:15;100708.34;;;9.09;100.00
44988;BME280;35735;52.226;21.254;2022-10-30T23:37:16;100709.97;;;8.95;100.00
44988;BME280;35735;52.226;21.254;2022-10-30T23:42:16;100708.97;;;8.84;100.00
44988;BME280;35735;52.226;21.254;2022-10-30T23:47:17;100705.34;;;8.83;100.00
44988;BME280;35735;52.226;21.254;2022-10-30T23:52:18;100700.94;;;8.90;100.00
44988;BME280;35735;52.226;21.254;2022-10-30T23:57:18;100701.81;;;8.86;100.00
